Time,TemperatureF,DewpointF,PressureIn,WindDirection,WindDirectionDegrees,WindSpeedMPH,WindSpeedGustMPH,Humidity,HourlyPrecipIn,Conditions,Clouds,dailyrainin,SoftwareType,DateUTC
2013-10-29 00:00:00,44.4,33.7,30.30,NE,39,0.0,0.0,66,0.00,,,0.00,Wunderground PWS Mod,2013-10-29 04:00:00,
2013-10-29 00:01:00,44.3,34.0,30.30,NE,39,0.0,0.0,67,0.00,,,0.00,Wunderground PWS Mod,2013-10-29 04:01:00,
2013-10-29 00:02:00,44.3,33.7,30.30,NE,39,0.0,0.0,66,0.00,,,0.00,Wunderground PWS Mod,2013-10-29 04:02:00,
2013-10-29 00:03:00,44.3,33.7,30.30,NE,39,0.0,0.0,66,0.00,,,0.00,Wunderground PWS Mod,2013-10-29 04:03:00,
2013-10-29 00:05:00,44.2,33.9,30.30,NE,39,0.0,3.0,67,0.00,,,0.00,Wunderground PWS Mod,2013-10-29 04:05:00,
2013-10-29 00:10:00,44.0,33.7,30.30,NE,39,0.0,3.0,67,0.00,,,0.00,Wunderground PWS Mod,2013-10-29 04:10:00,
2013-10-29 00:14:00,43.3,33.1,30.31,N/A,-737280,0.0,0.0,67,0.00,,,0.00,Wunderground PWS Mod,2013-10-29 04:14:00,
2013-10-29 00:15:00,43.8,33.6,30.30,North,355,0.0,3.0,67,0.00,,,0.00,Wunderground PWS Mod,2013-10-29 04:15:00,
2013-10-29 00:16:00,43.8,33.9,30.30,North,355,0.0,3.0,68,0.00,,,0.00,Wunderground PWS Mod,2013-10-29 04:16:00,
2013-10-29 00:21:00,43.6,33.4,30.30,North,360,0.0,3.0,67,0.00,,,0.00,Wunderground PWS Mod,2013-10-29 04:21:00,
2013-10-29 00:26:00,43.5,33.3,30.31,ENE,69,0.0,3.0,67,0.00,,,0.00,Wunderground PWS Mod,2013-10-29 04:26:00,
2013-10-29 00:31:00,43.4,33.2,30.31,ENE,69,0.0,3.0,67,0.00,,,0.00,Wunderground PWS Mod,2013-10-29 04:31:00,
2013-10-29 00:37:00,43.2,32.6,30.31,ENE,67,0.0,3.0,66,0.00,,,0.00,Wunderground PWS Mod,2013-10-29 04:37:00,
2013-10-29 00:43:00,43.0,32.8,30.31,NNE,28,0.0,3.0,67,0.00,,,0.00,Wunderground PWS Mod,2013-10-29 04:43:00,
2013-10-29 00:49:00,42.9,33.1,30.31,NNE,30,0.0,3.0,68,0.00,,,0.00,Wunderground PWS Mod,2013-10-29 04:49:00,
2013-10-29 00:54:00,42.6,32.8,30.31,North,355,0.0,3.0,68,0.00,,,0.00,Wunderground PWS Mod,2013-10-29 04:54:00,
2013-10-29 01:00:00,42.3,32.5,30.31,NNE,27,0.0,3.0,68,0.00,,,0.00,Wunderground PWS Mod,2013-10-29 05:00:00,
2013-10-29 01:06:00,42.1,32.7,30.31,NE,40,0.0,3.0,69,0.00,,,0.00,Wunderground PWS Mod,2013-10-29 05:06:00,
2013-10-29 01:12:00,42.0,31.8,30.32,East,101,0.0,3.0,67,0.00,,,0.00,Wunderground PWS Mod,2013-10-29 05:12:00,
2013-10-29 01:17:00,41.9,32.1,30.32,East,101,0.0,3.0,68,0.00,,,0.00,Wunderground PWS Mod,2013-10-29 05:17:00,
2013-10-29 01:23:00,41.8,31.3,30.31,ENE,65,0.0,3.0,66,0.00,,,0.00,Wunderground PWS Mod,2013-10-29 05:23:00,
2013-10-29 01:28:00,41.7,30.8,30.32,NE,44,1.0,3.0,65,0.00,,,0.00,Wunderground PWS Mod,2013-10-29 05:28:00,
2013-10-29 01:33:00,41.6,30.7,30.32,ENE,71,1.0,3.0,65,0.00,,,0.00,Wunderground PWS Mod,2013-10-29 05:33:00,
2013-10-29 01:38:00,41.5,31.0,30.32,NE,53,0.0,3.0,66,0.00,,,0.00,Wunderground PWS Mod,2013-10-29 05:38:00,
2013-10-29 01:44:00,41.4,30.1,30.31,ENE,62,0.0,3.0,64,0.00,,,0.00,Wunderground PWS Mod,2013-10-29 05:44:00,
2013-10-29 01:50:00,41.2,29.9,30.31,NNE,20,0.0,3.0,64,0.00,,,0.00,Wunderground PWS Mod,2013-10-29 05:50:00,
2013-10-29 01:55:00,41.0,29.7,30.31,ENE,61,0.0,3.0,64,0.00,,,0.00,Wunderground PWS Mod,2013-10-29 05:55:00,
2013-10-29 02:00:00,40.8,30.3,30.31,NE,37,0.0,3.0,66,0.00,,,0.00,Wunderground PWS Mod,2013-10-29 06:00:00,
2013-10-29 02:05:00,40.6,30.1,30.31,NE,42,0.0,3.0,66,0.00,,,0.00,Wunderground PWS Mod,2013-10-29 06:05:00,
2013-10-29 02:11:00,40.4,29.6,30.32,NE,42,0.0,3.0,65,0.00,,,0.00,Wunderground PWS Mod,2013-10-29 06:11:00,
2013-10-29 02:16:00,40.2,29.7,30.32,NE,42,0.0,3.0,66,0.00,,,0.00,Wunderground PWS Mod,2013-10-29 06:16:00,
2013-10-29 02:21:00,40.0,29.6,30.32,NE,43,0.0,3.0,66,0.00,,,0.00,Wunderground PWS Mod,2013-10-29 06:21:00,
2013-10-29 02:27:00,39.9,29.8,30.32,NNE,26,0.0,3.0,67,0.00,,,0.00,Wunderground PWS Mod,2013-10-29 06:27:00,
2013-10-29 02:32:00,39.7,29.3,30.32,NNE,15,0.0,3.0,66,0.00,,,0.00,Wunderground PWS Mod,2013-10-29 06:32:00,
2013-10-29 02:37:00,39.5,29.4,30.32,NNE,31,0.0,3.0,67,0.00,,,0.00,Wunderground PWS Mod,2013-10-29 06:37:00,
2013-10-29 02:42:00,39.4,29.3,30.32,NE,38,1.0,3.0,67,0.00,,,0.00,Wunderground PWS Mod,2013-10-29 06:42:00,
2013-10-29 02:47:00,39.3,28.9,30.32,NE,40,0.0,3.0,66,0.00,,,0.00,Wunderground PWS Mod,2013-10-29 06:47:00,
2013-10-29 02:52:00,39.3,30.0,30.32,NE,40,0.0,3.0,69,0.00,,,0.00,Wunderground PWS Mod,2013-10-29 06:52:00,
2013-10-29 02:58:00,39.3,28.9,30.32,North,9,0.0,3.0,66,0.00,,,0.00,Wunderground PWS Mod,2013-10-29 06:58:00,
2013-10-29 03:04:00,39.4,28.6,30.32,NE,41,0.0,3.0,65,0.00,,,0.00,Wunderground PWS Mod,2013-10-29 07:04:00,
2013-10-29 03:10:00,39.5,28.3,30.32,NE,39,0.0,3.0,64,0.00,,,0.00,Wunderground PWS Mod,2013-10-29 07:10:00,
2013-10-29 03:15:00,39.5,28.3,30.32,NE,46,0.0,3.0,64,0.00,,,0.00,Wunderground PWS Mod,2013-10-29 07:15:00,
2013-10-29 03:21:00,39.6,28.0,30.32,NE,49,0.0,3.0,63,0.00,,,0.00,Wunderground PWS Mod,2013-10-29 07:21:00,
2013-10-29 03:26:00,39.6,28.4,30.32,NE,38,0.0,3.0,64,0.00,,,0.00,Wunderground PWS Mod,2013-10-29 07:26:00,
2013-10-29 03:31:00,39.6,28.0,30.32,NE,40,0.0,3.0,63,0.00,,,0.00,Wunderground PWS Mod,2013-10-29 07:31:00,
2013-10-29 03:36:00,39.5,27.5,30.32,NE,40,1.0,3.0,62,0.00,,,0.00,Wunderground PWS Mod,2013-10-29 07:36:00,
2013-10-29 03:41:00,39.5,26.3,30.32,ESE,103,1.0,3.0,59,0.00,,,0.00,Wunderground PWS Mod,2013-10-29 07:41:00,
2013-10-29 03:47:00,39.5,26.3,30.32,East,91,1.0,3.0,59,0.00,,,0.00,Wunderground PWS Mod,2013-10-29 07:47:00,
2013-10-29 03:52:00,39.5,26.8,30.32,East,83,1.0,3.0,60,0.00,,,0.00,Wunderground PWS Mod,2013-10-29 07:52:00,
2013-10-29 03:57:00,39.7,26.5,30.32,ENE,74,1.0,3.0,59,0.00,,,0.00,Wunderground PWS Mod,2013-10-29 07:57:00,
2013-10-29 04:03:00,39.6,26.0,30.32,ENE,70,0.0,3.0,58,0.00,,,0.00,Wunderground PWS Mod,2013-10-29 08:03:00,
2013-10-29 04:08:00,39.5,25.9,30.32,ENE,58,0.0,6.0,58,0.00,,,0.00,Wunderground PWS Mod,2013-10-29 08:08:00,
2013-10-29 04:14:00,39.4,27.1,30.33,NE,53,0.0,6.0,61,0.00,,,0.00,Wunderground PWS Mod,2013-10-29 08:14:00,
2013-10-29 04:20:00,39.3,26.6,30.32,NE,53,0.0,6.0,60,0.00,,,0.00,Wunderground PWS Mod,2013-10-29 08:20:00,
2013-10-29 04:25:00,39.3,26.2,30.33,NE,52,0.0,6.0,59,0.00,,,0.00,Wunderground PWS Mod,2013-10-29 08:25:00,
2013-10-29 04:30:00,39.2,26.1,30.33,NE,35,0.0,6.0,59,0.00,,,0.00,Wunderground PWS Mod,2013-10-29 08:30:00,
2013-10-29 04:36:00,39.2,26.5,30.33,ENE,76,0.0,6.0,60,0.00,,,0.00,Wunderground PWS Mod,2013-10-29 08:36:00,
2013-10-29 04:42:00,39.2,26.9,30.33,North,360,0.0,6.0,61,0.00,,,0.00,Wunderground PWS Mod,2013-10-29 08:42:00,
2013-10-29 04:47:00,39.1,26.0,30.34,North,360,0.0,6.0,59,0.00,,,0.00,Wunderground PWS Mod,2013-10-29 08:47:00,
2013-10-29 04:52:00,39.1,26.8,30.34,NNE,19,0.0,6.0,61,0.00,,,0.00,Wunderground PWS Mod,2013-10-29 08:52:00,
2013-10-29 04:58:00,39.1,26.8,30.34,NNE,19,0.0,6.0,61,0.00,,,0.00,Wunderground PWS Mod,2013-10-29 08:58:00,
2013-10-29 05:04:00,39.0,26.7,30.35,NNE,26,0.0,6.0,61,0.00,,,0.00,Wunderground PWS Mod,2013-10-29 09:04:00,
2013-10-29 05:10:00,39.0,26.7,30.35,NNE,26,0.0,6.0,61,0.00,,,0.00,Wunderground PWS Mod,2013-10-29 09:10:00,
2013-10-29 05:15:00,38.9,26.6,30.35,NE,34,0.0,6.0,61,0.00,,,0.00,Wunderground PWS Mod,2013-10-29 09:15:00,
2013-10-29 05:21:00,39.0,26.7,30.35,North,355,0.0,6.0,61,0.00,,,0.00,Wunderground PWS Mod,2013-10-29 09:21:00,
2013-10-29 05:26:00,39.0,26.3,30.35,North,9,0.0,6.0,60,0.00,,,0.00,Wunderground PWS Mod,2013-10-29 09:26:00,
2013-10-29 05:31:00,38.9,26.6,30.35,North,10,0.0,6.0,61,0.00,,,0.00,Wunderground PWS Mod,2013-10-29 09:31:00,
2013-10-29 05:37:00,38.9,27.0,30.35,NNE,15,0.0,6.0,62,0.00,,,0.00,Wunderground PWS Mod,2013-10-29 09:37:00,
2013-10-29 05:42:00,38.9,27.0,30.35,NNW,348,0.0,6.0,62,0.00,,,0.00,Wunderground PWS Mod,2013-10-29 09:42:00,
2013-10-29 05:47:00,38.9,26.6,30.36,North,355,0.0,6.0,61,0.00,,,0.00,Wunderground PWS Mod,2013-10-29 09:47:00,
2013-10-29 05:53:00,38.8,26.9,30.36,North,10,0.0,6.0,62,0.00,,,0.00,Wunderground PWS Mod,2013-10-29 09:53:00,
2013-10-29 05:59:00,38.8,27.3,30.36,North,355,0.0,6.0,63,0.00,,,0.00,Wunderground PWS Mod,2013-10-29 09:59:00,
2013-10-29 06:04:00,38.8,27.3,30.36,NNE,12,1.0,6.0,63,0.00,,,0.00,Wunderground PWS Mod,2013-10-29 10:04:00,
2013-10-29 06:10:00,38.8,27.3,30.36,North,10,0.0,6.0,63,0.00,,,0.00,Wunderground PWS Mod,2013-10-29 10:10:00,
2013-10-29 06:15:00,38.8,27.3,30.35,NNE,26,0.0,6.0,63,0.00,,,0.00,Wunderground PWS Mod,2013-10-29 10:15:00,
2013-10-29 06:20:00,38.8,27.3,30.36,NNE,27,0.0,6.0,63,0.00,,,0.00,Wunderground PWS Mod,2013-10-29 10:20:00,
2013-10-29 06:26:00,38.9,27.4,30.35,NNE,27,0.0,6.0,63,0.00,,,0.00,Wunderground PWS Mod,2013-10-29 10:26:00,
2013-10-29 06:31:00,38.8,27.7,30.36,NNE,27,0.0,6.0,64,0.00,,,0.00,Wunderground PWS Mod,2013-10-29 10:31:00,
2013-10-29 06:36:00,38.8,27.7,30.36,NNE,24,0.0,6.0,64,0.00,,,0.00,Wunderground PWS Mod,2013-10-29 10:36:00,
2013-10-29 06:42:00,38.8,27.3,30.36,NNE,23,0.0,6.0,63,0.00,,,0.00,Wunderground PWS Mod,2013-10-29 10:42:00,
2013-10-29 06:47:00,38.8,27.7,30.36,North,11,0.0,6.0,64,0.00,,,0.00,Wunderground PWS Mod,2013-10-29 10:47:00,
2013-10-29 06:52:00,38.8,27.7,30.36,North,11,0.0,6.0,64,0.00,,,0.00,Wunderground PWS Mod,2013-10-29 10:52:00,
2013-10-29 06:57:00,38.7,27.2,30.36,NNE,20,0.0,6.0,63,0.00,,,0.00,Wunderground PWS Mod,2013-10-29 10:57:00,
2013-10-29 07:03:00,38.6,26.7,30.36,NE,37,0.0,6.0,62,0.00,,,0.00,Wunderground PWS Mod,2013-10-29 11:03:00,
2013-10-29 07:08:00,38.6,26.7,30.36,North,5,0.0,6.0,62,0.00,,,0.00,Wunderground PWS Mod,2013-10-29 11:08:00,
2013-10-29 07:14:00,38.5,27.0,30.36,North,11,0.0,6.0,63,0.00,,,0.00,Wunderground PWS Mod,2013-10-29 11:14:00,
2013-10-29 07:20:00,38.5,27.0,30.36,North,5,0.0,6.0,63,0.00,,,0.00,Wunderground PWS Mod,2013-10-29 11:20:00,
2013-10-29 07:25:00,38.5,26.6,30.36,North,5,0.0,6.0,62,0.00,,,0.00,Wunderground PWS Mod,2013-10-29 11:25:00,
2013-10-29 07:31:00,38.5,26.6,30.36,North,355,0.0,6.0,62,0.00,,,0.00,Wunderground PWS Mod,2013-10-29 11:31:00,
2013-10-29 07:36:00,38.5,26.6,30.36,North,9,0.0,6.0,62,0.00,,,0.00,Wunderground PWS Mod,2013-10-29 11:36:00,
2013-10-29 07:41:00,38.5,26.6,30.37,North,9,0.0,6.0,62,0.00,,,0.00,Wunderground PWS Mod,2013-10-29 11:41:00,
2013-10-29 07:46:00,38.4,26.5,30.37,NNE,28,0.0,6.0,62,0.00,,,0.00,Wunderground PWS Mod,2013-10-29 11:46:00,
2013-10-29 07:52:00,38.4,26.5,30.37,NNE,16,0.0,6.0,62,0.00,,,0.00,Wunderground PWS Mod,2013-10-29 11:52:00,
2013-10-29 07:57:00,38.3,26.8,30.37,North,360,0.0,6.0,63,0.00,,,0.00,Wunderground PWS Mod,2013-10-29 11:57:00,
2013-10-29 08:02:00,38.4,26.9,30.37,North,350,0.0,6.0,63,0.00,,,0.00,Wunderground PWS Mod,2013-10-29 12:02:00,
2013-10-29 08:08:00,38.4,26.9,30.37,North,355,0.0,3.0,63,0.00,,,0.00,Wunderground PWS Mod,2013-10-29 12:08:00,
2013-10-29 08:13:00,38.4,26.9,30.37,North,350,0.0,3.0,63,0.00,,,0.00,Wunderground PWS Mod,2013-10-29 12:13:00,
2013-10-29 08:14:00,38.4,26.9,30.37,North,0,0.0,3.0,63,0.00,,,0.00,Wunderground PWS Mod,2013-10-29 12:14:00,
2013-10-29 08:18:00,38.4,26.9,30.37,North,9,0.0,3.0,63,0.00,,,0.00,Wunderground PWS Mod,2013-10-29 12:18:00,
2013-10-29 08:24:00,38.5,26.6,30.38,North,5,0.0,3.0,62,0.00,,,0.00,Wunderground PWS Mod,2013-10-29 12:24:00,
2013-10-29 08:30:00,38.5,26.6,30.38,NNE,27,0.0,3.0,62,0.00,,,0.00,Wunderground PWS Mod,2013-10-29 12:30:00,
2013-10-29 08:36:00,38.6,26.7,30.38,NNE,17,0.0,3.0,62,0.00,,,0.00,Wunderground PWS Mod,2013-10-29 12:36:00,
2013-10-29 08:42:00,38.7,26.8,30.38,North,355,0.0,3.0,62,0.00,,,0.00,Wunderground PWS Mod,2013-10-29 12:42:00,
2013-10-29 08:47:00,38.8,26.5,30.38,NE,42,1.0,3.0,61,0.00,,,0.00,Wunderground PWS Mod,2013-10-29 12:47:00,
2013-10-29 08:52:00,38.9,26.6,30.38,North,355,0.0,3.0,61,0.00,,,0.00,Wunderground PWS Mod,2013-10-29 12:52:00,
2013-10-29 08:57:00,38.9,26.2,30.38,North,5,1.0,3.0,60,0.00,,,0.00,Wunderground PWS Mod,2013-10-29 12:57:00,
2013-10-29 09:03:00,39.0,26.7,30.38,NNE,16,1.0,3.0,61,0.00,,,0.00,Wunderground PWS Mod,2013-10-29 13:03:00,
2013-10-29 09:08:00,39.2,26.9,30.39,North,5,0.0,3.0,61,0.00,,,0.00,Wunderground PWS Mod,2013-10-29 13:08:00,
2013-10-29 09:14:00,39.4,26.7,30.39,North,355,1.0,3.0,60,0.00,,,0.00,Wunderground PWS Mod,2013-10-29 13:14:00,
2013-10-29 09:20:00,39.5,26.8,30.39,NNE,24,1.0,3.0,60,0.00,,,0.00,Wunderground PWS Mod,2013-10-29 13:20:00,
2013-10-29 09:25:00,39.6,26.8,30.39,NNE,13,1.0,3.0,60,0.00,,,0.00,Wunderground PWS Mod,2013-10-29 13:25:00,
2013-10-29 09:30:00,39.7,26.5,30.39,NE,40,1.0,3.0,59,0.00,,,0.00,Wunderground PWS Mod,2013-10-29 13:30:00,
2013-10-29 09:36:00,39.9,26.7,30.39,North,360,1.0,3.0,59,0.00,,,0.00,Wunderground PWS Mod,2013-10-29 13:36:00,
2013-10-29 09:41:00,40.1,26.5,30.39,NNE,28,1.0,3.0,58,0.00,,,0.00,Wunderground PWS Mod,2013-10-29 13:41:00,
2013-10-29 09:47:00,40.3,27.1,30.39,North,5,1.0,3.0,59,0.00,,,0.00,Wunderground PWS Mod,2013-10-29 13:47:00,
2013-10-29 09:53:00,40.5,26.9,30.39,NNE,19,1.0,3.0,58,0.00,,,0.00,Wunderground PWS Mod,2013-10-29 13:53:00,
2013-10-29 09:58:00,40.4,27.6,30.39,NNE,19,0.0,3.0,60,0.00,,,0.00,Wunderground PWS Mod,2013-10-29 13:58:00,
2013-10-29 10:03:00,40.6,27.0,30.39,North,351,1.0,3.0,58,0.00,,,0.00,Wunderground PWS Mod,2013-10-29 14:03:00,
2013-10-29 10:08:00,41.0,27.3,30.38,NNE,20,1.0,3.0,58,0.00,,,0.00,Wunderground PWS Mod,2013-10-29 14:08:00,
2013-10-29 10:14:00,41.5,27.4,30.38,NNW,343,0.0,3.0,57,0.00,,,0.00,Wunderground PWS Mod,2013-10-29 14:14:00,
2013-10-29 10:20:00,42.1,27.1,30.38,NE,55,0.0,3.0,55,0.00,,,0.00,Wunderground PWS Mod,2013-10-29 14:20:00,
2013-10-29 10:25:00,42.5,27.5,30.38,North,10,0.0,4.0,55,0.00,,,0.00,Wunderground PWS Mod,2013-10-29 14:25:00,
2013-10-29 10:31:00,42.9,27.4,30.38,North,355,1.0,3.0,54,0.00,,,0.00,Wunderground PWS Mod,2013-10-29 14:31:00,
2013-10-29 10:36:00,43.2,27.2,30.38,NNE,17,1.0,3.0,53,0.00,,,0.00,Wunderground PWS Mod,2013-10-29 14:36:00,
2013-10-29 10:41:00,43.6,28.0,30.38,NNE,19,1.0,3.0,54,0.00,,,0.00,Wunderground PWS Mod,2013-10-29 14:41:00,
2013-10-29 10:47:00,44.0,28.0,30.38,NNW,337,1.0,3.0,53,0.00,,,0.00,Wunderground PWS Mod,2013-10-29 14:47:00,
2013-10-29 10:52:00,44.5,27.5,30.38,NNW,342,1.0,3.0,51,0.00,,,0.00,Wunderground PWS Mod,2013-10-29 14:52:00,
2013-10-29 10:57:00,45.0,27.9,30.38,ESE,105,1.0,3.0,51,0.00,,,0.00,Wunderground PWS Mod,2013-10-29 14:57:00,
2013-10-29 11:03:00,45.6,27.5,30.37,ENE,69,0.0,3.0,49,0.00,,,0.00,Wunderground PWS Mod,2013-10-29 15:03:00,
2013-10-29 11:08:00,46.0,27.4,30.37,ESE,107,0.0,3.0,48,0.00,,,0.00,Wunderground PWS Mod,2013-10-29 15:08:00,
2013-10-29 11:13:00,46.2,27.1,30.38,East,101,0.0,3.0,47,0.00,,,0.00,Wunderground PWS Mod,2013-10-29 15:13:00,
2013-10-29 11:18:00,46.5,26.8,30.37,ESE,107,0.0,3.0,46,0.00,,,0.00,Wunderground PWS Mod,2013-10-29 15:18:00,
2013-10-29 11:24:00,46.5,27.3,30.38,North,5,0.0,3.0,47,0.00,,,0.00,Wunderground PWS Mod,2013-10-29 15:24:00,
2013-10-29 11:30:00,46.2,26.5,30.37,ENE,74,0.0,3.0,46,0.00,,,0.00,Wunderground PWS Mod,2013-10-29 15:30:00,
2013-10-29 11:36:00,46.5,27.3,30.37,NE,52,0.0,3.0,47,0.00,,,0.00,Wunderground PWS Mod,2013-10-29 15:36:00,
2013-10-29 11:41:00,46.9,27.2,30.37,ESE,106,0.0,3.0,46,0.00,,,0.00,Wunderground PWS Mod,2013-10-29 15:41:00,
2013-10-29 11:47:00,47.1,26.8,30.36,SSE,148,0.0,3.0,45,0.00,,,0.00,Wunderground PWS Mod,2013-10-29 15:47:00,
2013-10-29 11:52:00,47.4,27.6,30.36,North,5,0.0,3.0,46,0.00,,,0.00,Wunderground PWS Mod,2013-10-29 15:52:00,
2013-10-29 11:57:00,47.7,27.9,30.36,NNE,16,0.0,3.0,46,0.00,,,0.00,Wunderground PWS Mod,2013-10-29 15:57:00,
2013-10-29 12:02:00,47.8,26.9,30.36,WNW,302,1.0,3.0,44,0.00,,,0.00,Wunderground PWS Mod,2013-10-29 16:02:00,
2013-10-29 12:08:00,47.7,26.8,30.36,North,360,2.0,5.0,44,0.00,,,0.00,Wunderground PWS Mod,2013-10-29 16:08:00,
2013-10-29 12:13:00,47.9,27.0,30.36,ESE,113,2.0,5.0,44,0.00,,,0.00,Wunderground PWS Mod,2013-10-29 16:13:00,
2013-10-29 12:14:00,47.8,27.5,30.36,NNE,23,1.0,5.0,45,0.00,,,0.00,Wunderground PWS Mod,2013-10-29 16:14:00,
2013-10-29 12:18:00,48.1,27.2,30.36,SE,129,1.0,5.0,44,0.00,,,0.00,Wunderground PWS Mod,2013-10-29 16:18:00,
2013-10-29 12:23:00,48.5,27.6,30.36,NE,42,0.0,5.0,44,0.00,,,0.00,Wunderground PWS Mod,2013-10-29 16:23:00,
2013-10-29 12:28:00,48.3,27.4,30.35,NNE,26,1.0,5.0,44,0.00,,,0.00,Wunderground PWS Mod,2013-10-29 16:28:00,
2013-10-29 12:34:00,48.3,27.9,30.35,North,350,1.0,5.0,45,0.00,,,0.00,Wunderground PWS Mod,2013-10-29 16:34:00,
2013-10-29 12:39:00,48.9,27.9,30.35,SSE,165,0.0,5.0,44,0.00,,,0.00,Wunderground PWS Mod,2013-10-29 16:39:00,
2013-10-29 12:45:00,49.5,29.0,30.35,East,97,0.0,5.0,45,0.00,,,0.00,Wunderground PWS Mod,2013-10-29 16:45:00,
2013-10-29 12:50:00,49.6,28.0,30.34,ESE,115,0.0,5.0,43,0.00,,,0.00,Wunderground PWS Mod,2013-10-29 16:50:00,
2013-10-29 12:55:00,49.4,27.8,30.34,NNW,346,1.0,5.0,43,0.00,,,0.00,Wunderground PWS Mod,2013-10-29 16:55:00,
2013-10-29 13:01:00,49.6,29.1,30.34,NNE,17,1.0,5.0,45,0.00,,,0.00,Wunderground PWS Mod,2013-10-29 17:01:00,
2013-10-29 13:07:00,50.3,29.2,30.34,ENE,57,0.0,5.0,44,0.00,,,0.00,Wunderground PWS Mod,2013-10-29 17:07:00,
2013-10-29 13:12:00,50.6,28.9,30.33,WNW,287,1.0,5.0,43,0.00,,,0.00,Wunderground PWS Mod,2013-10-29 17:12:00,
2013-10-29 13:18:00,50.9,29.2,30.33,West,278,1.0,5.0,43,0.00,,,0.00,Wunderground PWS Mod,2013-10-29 17:18:00,
2013-10-29 13:24:00,51.0,29.3,30.33,North,355,1.0,5.0,43,0.00,,,0.00,Wunderground PWS Mod,2013-10-29 17:24:00,
2013-10-29 13:30:00,51.0,29.3,30.33,NE,40,1.0,5.0,43,0.00,,,0.00,Wunderground PWS Mod,2013-10-29 17:30:00,
2013-10-29 13:36:00,51.0,29.3,30.33,NE,46,1.0,5.0,43,0.00,,,0.00,Wunderground PWS Mod,2013-10-29 17:36:00,
2013-10-29 13:41:00,50.9,28.6,30.33,NNE,32,0.0,5.0,42,0.00,,,0.00,Wunderground PWS Mod,2013-10-29 17:41:00,
2013-10-29 13:46:00,50.9,29.7,30.33,WNW,294,0.0,5.0,44,0.00,,,0.00,Wunderground PWS Mod,2013-10-29 17:46:00,
2013-10-29 13:52:00,51.1,28.8,30.33,NNW,342,1.0,5.0,42,0.00,,,0.00,Wunderground PWS Mod,2013-10-29 17:52:00,
2013-10-29 13:57:00,51.2,30.0,30.33,NW,311,1.0,5.0,44,0.00,,,0.00,Wunderground PWS Mod,2013-10-29 17:57:00,
2013-10-29 14:02:00,51.3,29.0,30.33,North,355,1.0,5.0,42,0.00,,,0.00,Wunderground PWS Mod,2013-10-29 18:02:00,
2013-10-29 14:07:00,51.3,29.0,30.33,SW,216,1.0,5.0,42,0.00,,,0.00,Wunderground PWS Mod,2013-10-29 18:07:00,
2013-10-29 14:13:00,51.3,29.0,30.33,NE,40,1.0,5.0,42,0.00,,,0.00,Wunderground PWS Mod,2013-10-29 18:13:00,
2013-10-29 14:18:00,51.5,29.1,30.32,WSW,255,1.0,5.0,42,0.00,,,0.00,Wunderground PWS Mod,2013-10-29 18:18:00,
2013-10-29 14:23:00,51.5,29.7,30.32,SW,227,1.0,5.0,43,0.00,,,0.00,Wunderground PWS Mod,2013-10-29 18:23:00,
2013-10-29 14:28:00,51.4,30.2,30.32,South,180,1.0,5.0,44,0.00,,,0.00,Wunderground PWS Mod,2013-10-29 18:28:00,
2013-10-29 14:34:00,51.5,30.8,30.32,South,180,0.0,5.0,45,0.00,,,0.00,Wunderground PWS Mod,2013-10-29 18:34:00,
2013-10-29 14:40:00,51.6,30.4,30.32,NNW,333,0.0,5.0,44,0.00,,,0.00,Wunderground PWS Mod,2013-10-29 18:40:00,
2013-10-29 14:45:00,51.8,30.0,30.32,WSW,240,0.0,5.0,43,0.00,,,0.00,Wunderground PWS Mod,2013-10-29 18:45:00,
2013-10-29 14:50:00,52.0,30.2,30.32,SE,142,0.0,5.0,43,0.00,,,0.00,Wunderground PWS Mod,2013-10-29 18:50:00,
2013-10-29 14:56:00,52.3,30.4,30.32,NW,311,0.0,5.0,43,0.00,,,0.00,Wunderground PWS Mod,2013-10-29 18:56:00,
2013-10-29 15:01:00,52.4,30.5,30.32,SSW,194,0.0,5.0,43,0.00,,,0.00,Wunderground PWS Mod,2013-10-29 19:01:00,
2013-10-29 15:06:00,52.8,30.9,30.32,North,5,0.0,5.0,43,0.00,,,0.00,Wunderground PWS Mod,2013-10-29 19:06:00,
2013-10-29 15:12:00,52.9,31.0,30.32,North,10,0.0,5.0,43,0.00,,,0.00,Wunderground PWS Mod,2013-10-29 19:12:00,
2013-10-29 15:17:00,52.8,30.3,30.32,North,355,0.0,5.0,42,0.00,,,0.00,Wunderground PWS Mod,2013-10-29 19:17:00,
2013-10-29 15:23:00,52.7,30.2,30.32,NNW,332,0.0,5.0,42,0.00,,,0.00,Wunderground PWS Mod,2013-10-29 19:23:00,
2013-10-29 15:28:00,52.8,30.9,30.32,NNW,327,0.0,5.0,43,0.00,,,0.00,Wunderground PWS Mod,2013-10-29 19:28:00,
2013-10-29 15:33:00,52.8,30.9,30.33,NNE,20,0.0,5.0,43,0.00,,,0.00,Wunderground PWS Mod,2013-10-29 19:33:00,
2013-10-29 15:38:00,53.0,30.5,30.32,WSW,237,0.0,5.0,42,0.00,,,0.00,Wunderground PWS Mod,2013-10-29 19:38:00,
2013-10-29 15:44:00,52.8,30.9,30.33,North,5,0.0,5.0,43,0.00,,,0.00,Wunderground PWS Mod,2013-10-29 19:44:00,
2013-10-29 15:50:00,52.6,30.7,30.33,North,350,1.0,5.0,43,0.00,,,0.00,Wunderground PWS Mod,2013-10-29 19:50:00,
2013-10-29 15:55:00,52.4,31.1,30.33,NNE,29,1.0,5.0,44,0.00,,,0.00,Wunderground PWS Mod,2013-10-29 19:55:00,
2013-10-29 16:00:00,52.4,31.1,30.33,North,360,0.0,5.0,44,0.00,,,0.00,Wunderground PWS Mod,2013-10-29 20:00:00,
2013-10-29 16:06:00,52.5,31.2,30.33,North,360,0.0,4.0,44,0.00,,,0.00,Wunderground PWS Mod,2013-10-29 20:06:00,
2013-10-29 16:12:00,52.4,30.5,30.32,NNE,32,0.0,4.0,43,0.00,,,0.00,Wunderground PWS Mod,2013-10-29 20:12:00,
2013-10-29 16:14:00,52.4,31.7,30.33,North,0,0.0,4.0,45,0.00,,,0.00,Wunderground PWS Mod,2013-10-29 20:14:00,
2013-10-29 16:17:00,52.3,32.1,30.32,NNE,13,0.0,4.0,46,0.00,,,0.00,Wunderground PWS Mod,2013-10-29 20:17:00,
2013-10-29 16:22:00,52.0,30.7,30.33,NNE,28,0.0,4.0,44,0.00,,,0.00,Wunderground PWS Mod,2013-10-29 20:22:00,
2013-10-29 16:28:00,51.8,30.6,30.33,WSW,242,0.0,4.0,44,0.00,,,0.00,Wunderground PWS Mod,2013-10-29 20:28:00,
2013-10-29 16:33:00,51.8,30.6,30.33,WSW,242,0.0,4.0,44,0.00,,,0.00,Wunderground PWS Mod,2013-10-29 20:33:00,
2013-10-29 16:38:00,51.7,30.5,30.33,NW,315,0.0,4.0,44,0.00,,,0.00,Wunderground PWS Mod,2013-10-29 20:38:00,
2013-10-29 16:43:00,51.5,29.7,30.33,North,355,0.0,4.0,43,0.00,,,0.00,Wunderground PWS Mod,2013-10-29 20:43:00,
2013-10-29 16:48:00,51.4,30.7,30.33,North,355,0.0,4.0,45,0.00,,,0.00,Wunderground PWS Mod,2013-10-29 20:48:00,
2013-10-29 16:54:00,51.2,30.0,30.33,North,355,0.0,4.0,44,0.00,,,0.00,Wunderground PWS Mod,2013-10-29 20:54:00,
2013-10-29 17:00:00,51.0,30.4,30.33,North,355,0.0,4.0,45,0.00,,,0.00,Wunderground PWS Mod,2013-10-29 21:00:00,
2013-10-29 17:06:00,50.8,30.2,30.33,North,355,0.0,4.0,45,0.00,,,0.00,Wunderground PWS Mod,2013-10-29 21:06:00,
2013-10-29 17:11:00,50.6,30.0,30.33,North,355,0.0,4.0,45,0.00,,,0.00,Wunderground PWS Mod,2013-10-29 21:11:00,
2013-10-29 17:16:00,50.4,30.4,30.33,North,355,0.0,4.0,46,0.00,,,0.00,Wunderground PWS Mod,2013-10-29 21:16:00,
2013-10-29 17:22:00,50.1,31.2,30.33,North,355,0.0,4.0,48,0.00,,,0.00,Wunderground PWS Mod,2013-10-29 21:22:00,
2013-10-29 17:27:00,49.7,30.3,30.33,North,355,0.0,4.0,47,0.00,,,0.00,Wunderground PWS Mod,2013-10-29 21:27:00,
2013-10-29 17:32:00,49.5,29.6,30.33,North,355,0.0,4.0,46,0.00,,,0.00,Wunderground PWS Mod,2013-10-29 21:32:00,
2013-10-29 17:37:00,49.2,29.8,30.33,North,355,0.0,4.0,47,0.00,,,0.00,Wunderground PWS Mod,2013-10-29 21:37:00,
2013-10-29 17:43:00,48.7,29.9,30.33,North,355,0.0,4.0,48,0.00,,,0.00,Wunderground PWS Mod,2013-10-29 21:43:00,
2013-10-29 17:48:00,48.3,30.0,30.33,North,355,0.0,4.0,49,0.00,,,0.00,Wunderground PWS Mod,2013-10-29 21:48:00,
2013-10-29 17:53:00,47.8,30.0,30.33,North,355,0.0,4.0,50,0.00,,,0.00,Wunderground PWS Mod,2013-10-29 21:53:00,
2013-10-29 17:58:00,47.4,28.7,30.32,North,355,0.0,4.0,48,0.00,,,0.00,Wunderground PWS Mod,2013-10-29 21:58:00,
2013-10-29 18:04:00,47.2,28.5,30.32,North,355,0.0,4.0,48,0.00,,,0.00,Wunderground PWS Mod,2013-10-29 22:04:00,
2013-10-29 18:10:00,47.2,28.5,30.33,North,355,0.0,4.0,48,0.00,,,0.00,Wunderground PWS Mod,2013-10-29 22:10:00,
2013-10-29 18:15:00,47.0,28.3,30.33,North,355,0.0,4.0,48,0.00,,,0.00,Wunderground PWS Mod,2013-10-29 22:15:00,
2013-10-29 18:21:00,46.8,28.1,30.33,North,355,0.0,4.0,48,0.00,,,0.00,Wunderground PWS Mod,2013-10-29 22:21:00,
2013-10-29 18:26:00,46.5,28.3,30.33,North,355,0.0,4.0,49,0.00,,,0.00,Wunderground PWS Mod,2013-10-29 22:26:00,
2013-10-29 18:31:00,46.3,27.7,30.33,North,355,0.0,4.0,48,0.00,,,0.00,Wunderground PWS Mod,2013-10-29 22:31:00,
2013-10-29 18:36:00,46.2,27.6,30.33,North,355,0.0,4.0,48,0.00,,,0.00,Wunderground PWS Mod,2013-10-29 22:36:00,
2013-10-29 18:42:00,46.0,27.9,30.34,North,355,0.0,4.0,49,0.00,,,0.00,Wunderground PWS Mod,2013-10-29 22:42:00,
2013-10-29 18:47:00,45.9,29.2,30.34,ENE,78,0.0,4.0,52,0.00,,,0.00,Wunderground PWS Mod,2013-10-29 22:47:00,
2013-10-29 18:52:00,45.4,29.3,30.34,ENE,78,0.0,4.0,53,0.00,,,0.00,Wunderground PWS Mod,2013-10-29 22:52:00,
2013-10-29 18:58:00,44.7,29.1,30.34,ENE,78,0.0,4.0,54,0.00,,,0.00,Wunderground PWS Mod,2013-10-29 22:58:00,
2013-10-29 19:04:00,44.3,28.2,30.34,ENE,78,0.0,4.0,53,0.00,,,0.00,Wunderground PWS Mod,2013-10-29 23:04:00,
2013-10-29 19:10:00,44.4,27.9,30.34,ENE,78,0.0,4.0,52,0.00,,,0.00,Wunderground PWS Mod,2013-10-29 23:10:00,
2013-10-29 19:16:00,44.6,27.6,30.33,ENE,69,0.0,4.0,51,0.00,,,0.00,Wunderground PWS Mod,2013-10-29 23:16:00,
2013-10-29 19:21:00,44.7,27.2,30.34,NE,52,0.0,4.0,50,0.00,,,0.00,Wunderground PWS Mod,2013-10-29 23:21:00,
2013-10-29 19:26:00,44.8,27.8,30.34,North,5,0.0,4.0,51,0.00,,,0.00,Wunderground PWS Mod,2013-10-29 23:26:00,
2013-10-29 19:32:00,44.5,28.9,30.34,North,5,0.0,4.0,54,0.00,,,0.00,Wunderground PWS Mod,2013-10-29 23:32:00,
2013-10-29 19:37:00,44.2,28.1,30.34,North,5,0.0,4.0,53,0.00,,,0.00,Wunderground PWS Mod,2013-10-29 23:37:00,
2013-10-29 19:43:00,43.9,27.4,30.34,North,5,0.0,4.0,52,0.00,,,0.00,Wunderground PWS Mod,2013-10-29 23:43:00,
2013-10-29 19:48:00,43.8,28.2,30.34,North,5,0.0,4.0,54,0.00,,,0.00,Wunderground PWS Mod,2013-10-29 23:48:00,
2013-10-29 19:54:00,43.7,27.2,30.34,North,355,0.0,4.0,52,0.00,,,0.00,Wunderground PWS Mod,2013-10-29 23:54:00,
2013-10-29 20:00:00,44.0,27.5,30.34,North,355,0.0,4.0,52,0.00,,,0.00,Wunderground PWS Mod,2013-10-30 00:00:00,
2013-10-29 20:05:00,43.8,28.2,30.35,North,350,0.0,5.0,54,0.00,,,0.00,Wunderground PWS Mod,2013-10-30 00:05:00,
2013-10-29 20:11:00,43.4,27.8,30.35,North,351,0.0,5.0,54,0.00,,,0.00,Wunderground PWS Mod,2013-10-30 00:11:00,
2013-10-29 20:14:00,44.0,28.4,30.35,North,0,0.0,5.0,54,0.00,,,0.00,Wunderground PWS Mod,2013-10-30 00:14:00,
2013-10-29 20:16:00,43.4,27.8,30.35,North,351,0.0,5.0,54,0.00,,,0.00,Wunderground PWS Mod,2013-10-30 00:16:00,
2013-10-29 20:21:00,43.4,27.8,30.35,North,351,0.0,5.0,54,0.00,,,0.00,Wunderground PWS Mod,2013-10-30 00:21:00,
2013-10-29 20:26:00,43.3,28.2,30.35,North,351,0.0,5.0,55,0.00,,,0.00,Wunderground PWS Mod,2013-10-30 00:26:00,
2013-10-29 20:32:00,43.2,28.1,30.34,North,351,0.0,5.0,55,0.00,,,0.00,Wunderground PWS Mod,2013-10-30 00:32:00,
2013-10-29 20:37:00,43.2,27.7,30.35,North,355,0.0,5.0,54,0.00,,,0.00,Wunderground PWS Mod,2013-10-30 00:37:00,
2013-10-29 20:43:00,43.2,28.1,30.35,North,355,0.0,5.0,55,0.00,,,0.00,Wunderground PWS Mod,2013-10-30 00:43:00,
2013-10-29 20:48:00,42.9,28.3,30.34,North,355,0.0,5.0,56,0.00,,,0.00,Wunderground PWS Mod,2013-10-30 00:48:00,
2013-10-29 20:54:00,42.7,28.5,30.34,North,355,0.0,5.0,57,0.00,,,0.00,Wunderground PWS Mod,2013-10-30 00:54:00,
2013-10-29 21:00:00,42.5,28.3,30.34,North,355,0.0,5.0,57,0.00,,,0.00,Wunderground PWS Mod,2013-10-30 01:00:00,
2013-10-29 21:05:00,42.4,27.8,30.34,North,355,0.0,5.0,56,0.00,,,0.00,Wunderground PWS Mod,2013-10-30 01:05:00,
2013-10-29 21:11:00,42.5,27.9,30.34,North,355,0.0,5.0,56,0.00,,,0.00,Wunderground PWS Mod,2013-10-30 01:11:00,
2013-10-29 21:16:00,42.5,27.9,30.34,North,355,0.0,5.0,56,0.00,,,0.00,Wunderground PWS Mod,2013-10-30 01:16:00,
2013-10-29 21:22:00,42.5,27.9,30.34,North,355,0.0,5.0,56,0.00,,,0.00,Wunderground PWS Mod,2013-10-30 01:22:00,
2013-10-29 21:27:00,42.4,27.4,30.34,North,355,0.0,5.0,55,0.00,,,0.00,Wunderground PWS Mod,2013-10-30 01:27:00,
2013-10-29 21:32:00,42.4,27.8,30.34,North,355,0.0,5.0,56,0.00,,,0.00,Wunderground PWS Mod,2013-10-30 01:32:00,
2013-10-29 21:37:00,42.3,28.1,30.34,North,355,0.0,5.0,57,0.00,,,0.00,Wunderground PWS Mod,2013-10-30 01:37:00,
2013-10-29 21:43:00,42.2,28.5,30.34,North,355,0.0,5.0,58,0.00,,,0.00,Wunderground PWS Mod,2013-10-30 01:43:00,
2013-10-29 21:48:00,42.1,27.9,30.34,North,355,0.0,5.0,57,0.00,,,0.00,Wunderground PWS Mod,2013-10-30 01:48:00,
2013-10-29 21:54:00,42.0,27.4,30.34,North,355,0.0,5.0,56,0.00,,,0.00,Wunderground PWS Mod,2013-10-30 01:54:00,
2013-10-29 22:00:00,42.1,27.5,30.35,North,355,0.0,5.0,56,0.00,,,0.00,Wunderground PWS Mod,2013-10-30 02:00:00,
2013-10-29 22:05:00,42.2,27.6,30.35,North,355,0.0,5.0,56,0.00,,,0.00,Wunderground PWS Mod,2013-10-30 02:05:00,
2013-10-29 22:10:00,42.2,28.0,30.35,North,355,0.0,5.0,57,0.00,,,0.00,Wunderground PWS Mod,2013-10-30 02:10:00,
2013-10-29 22:16:00,42.1,27.5,30.35,North,355,0.0,5.0,56,0.00,,,0.00,Wunderground PWS Mod,2013-10-30 02:16:00,
2013-10-29 22:22:00,42.0,27.9,30.35,North,355,0.0,5.0,57,0.00,,,0.00,Wunderground PWS Mod,2013-10-30 02:22:00,
2013-10-29 22:27:00,41.8,28.1,30.34,North,355,0.0,5.0,58,0.00,,,0.00,Wunderground PWS Mod,2013-10-30 02:27:00,
2013-10-29 22:33:00,41.5,27.8,30.35,North,355,0.0,5.0,58,0.00,,,0.00,Wunderground PWS Mod,2013-10-30 02:33:00,
2013-10-29 22:38:00,41.4,27.7,30.35,North,355,0.0,5.0,58,0.00,,,0.00,Wunderground PWS Mod,2013-10-30 02:38:00,
2013-10-29 22:44:00,41.3,27.2,30.34,North,355,0.0,5.0,57,0.00,,,0.00,Wunderground PWS Mod,2013-10-30 02:44:00,
2013-10-29 22:50:00,41.3,27.2,30.34,North,355,0.0,5.0,57,0.00,,,0.00,Wunderground PWS Mod,2013-10-30 02:50:00,
2013-10-29 22:55:00,41.3,28.0,30.34,North,355,0.0,5.0,59,0.00,,,0.00,Wunderground PWS Mod,2013-10-30 02:55:00,
2013-10-29 23:01:00,41.0,27.3,30.34,North,355,0.0,5.0,58,0.00,,,0.00,Wunderground PWS Mod,2013-10-30 03:01:00,
2013-10-29 23:06:00,40.9,27.7,30.34,North,355,0.0,5.0,59,0.00,,,0.00,Wunderground PWS Mod,2013-10-30 03:06:00,
2013-10-29 23:11:00,40.7,27.5,30.34,North,355,0.0,5.0,59,0.00,,,0.00,Wunderground PWS Mod,2013-10-30 03:11:00,
2013-10-29 23:17:00,40.6,29.0,30.34,North,355,0.0,5.0,63,0.00,,,0.00,Wunderground PWS Mod,2013-10-30 03:17:00,
2013-10-29 23:22:00,40.2,27.8,30.34,North,355,0.0,5.0,61,0.00,,,0.00,Wunderground PWS Mod,2013-10-30 03:22:00,
2013-10-29 23:27:00,40.1,27.3,30.34,North,355,0.0,5.0,60,0.00,,,0.00,Wunderground PWS Mod,2013-10-30 03:27:00,
2013-10-29 23:33:00,40.3,27.9,30.34,North,355,0.0,5.0,61,0.00,,,0.00,Wunderground PWS Mod,2013-10-30 03:33:00,
2013-10-29 23:38:00,40.2,28.6,30.34,North,355,0.0,5.0,63,0.00,,,0.00,Wunderground PWS Mod,2013-10-30 03:38:00,
2013-10-29 23:44:00,39.8,29.7,30.34,North,355,0.0,5.0,67,0.00,,,0.00,Wunderground PWS Mod,2013-10-30 03:44:00,
2013-10-29 23:50:00,39.4,29.0,30.34,North,355,0.0,5.0,66,0.00,,,0.00,Wunderground PWS Mod,2013-10-30 03:50:00,
2013-10-29 23:55:00,38.9,28.9,30.33,North,355,0.0,5.0,67,0.00,,,0.00,Wunderground PWS Mod,2013-10-30 03:55:00,